Time;durP1;ratioP1;P1;durP2;ratioP2;P2;SDS_P1;SDS_P2;PMS_P1;PMS_P2;Temp;Humidity;BMP_temperature;BMP_pressure;BME280_temperature;BME280_humidity;BME280_pressure;Samples;Min_cycle;Max_cycle;Signal;HPM_P1;HPM_P2
2022/07/11 00:01:23;;;;;;;7.10;2.10;;;;;;;20.56;57.10;101284.25;5030690;28;20297;-65
2022/07/11 00:03:52;;;;;;;7.27;2.93;;;;;;;20.52;56.86;101275.72;5023695;28;20656;-65
2022/07/11 00:06:19;;;;;;;4.77;2.37;;;;;;;20.51;57.29;101276.75;5028810;28;20212;-65
2022/07/11 00:08:49;;;;;;;4.00;2.30;;;;;;;20.50;57.89;101274.22;5030656;28;20208;-65
2022/07/11 00:11:16;;;;;;;5.83;2.87;;;;;;;20.50;57.82;101279.63;5025523;28;20629;-65
2022/07/11 00:13:44;;;;;;;4.90;2.60;;;;;;;20.49;57.89;101273.41;5029899;28;20625;-65
2022/07/11 00:16:12;;;;;;;5.47;2.63;;;;;;;20.49;57.79;101268.00;5030725;28;20215;-65
2022/07/11 00:18:40;;;;;;;6.50;2.70;;;;;;;20.46;57.96;101268.41;5031043;28;20715;-65
2022/07/11 00:21:08;;;;;;;5.20;2.20;;;;;;;20.45;58.45;101272.13;5028011;28;20209;-65
2022/07/11 00:23:36;;;;;;;5.27;2.40;;;;;;;20.40;58.50;101269.19;5027883;28;20225;-65
2022/07/11 00:26:05;;;;;;;6.13;2.80;;;;;;;20.40;58.58;101263.81;5021042;28;20229;-65
2022/07/11 00:28:33;;;;;;;5.03;2.77;;;;;;;20.39;58.48;101261.31;5022592;28;20295;-65
2022/07/11 00:31:01;;;;;;;4.73;2.20;;;;;;;20.32;59.05;101260.38;5019163;28;20213;-65
2022/07/11 00:33:29;;;;;;;4.70;2.20;;;;;;;20.29;58.99;101259.72;5024240;28;20698;-65
2022/07/11 00:35:57;;;;;;;8.63;2.63;;;;;;;20.27;58.94;101256.41;5031881;28;20711;-65
2022/07/11 00:38:25;;;;;;;5.63;2.50;;;;;;;20.25;58.95;101254.91;5028207;28;20224;-65
2022/07/11 00:40:52;;;;;;;7.03;2.10;;;;;;;20.26;59.19;101251.19;5033642;28;20224;-65
2022/07/11 00:43:30;;;;;;;3.87;2.20;;;;;;;20.21;59.45;101251.78;5033822;28;20204;-65
2022/07/11 00:45:58;;;;;;;3.70;2.30;;;;;;;20.15;59.31;101249.00;5034019;28;20231;-65
2022/07/11 00:48:26;;;;;;;4.03;2.60;;;;;;;20.12;59.99;101250.25;5033724;28;20262;-65
2022/07/11 00:50:54;;;;;;;3.17;2.20;;;;;;;20.08;60.36;101248.09;5033812;28;20216;-65
2022/07/11 00:53:22;;;;;;;4.07;2.27;;;;;;;20.09;60.61;101244.41;5032939;28;20292;-65
2022/07/11 00:55:53;;;;;;;4.50;2.33;;;;;;;20.11;60.45;101245.03;5034294;28;20219;-65
2022/07/11 00:58:23;;;;;;;6.03;2.37;;;;;;;20.07;60.44;101249.13;5032854;28;20247;-65
2022/07/11 01:00:51;;;;;;;6.90;2.20;;;;;;;20.06;60.27;101244.75;5033554;28;20212;-65
2022/07/11 01:03:19;;;;;;;8.23;2.63;;;;;;;20.04;60.70;101246.84;5033060;28;20219;-65
2022/07/11 01:05:47;;;;;;;4.80;2.30;;;;;;;20.02;60.50;101248.88;5033567;28;20213;-65
2022/07/11 01:08:16;;;;;;;4.33;2.60;;;;;;;19.97;60.56;101248.59;5033103;28;20209;-65
2022/07/11 01:10:44;;;;;;;3.77;2.10;;;;;;;19.94;61.28;101240.94;5032426;28;20296;-65
2022/07/11 01:13:11;;;;;;;4.80;2.30;;;;;;;19.94;60.75;101230.16;5027580;28;20321;-65
2022/07/11 01:15:41;;;;;;;8.50;2.33;;;;;;;19.98;60.67;101231.44;5032609;28;20262;-65
2022/07/11 01:18:08;;;;;;;5.03;2.03;;;;;;;19.97;60.81;101227.06;5033437;28;20298;-65
2022/07/11 01:20:36;;;;;;;4.30;2.20;;;;;;;20.01;60.60;101225.69;5032683;28;20213;-65
2022/07/11 01:23:06;;;;;;;4.37;2.20;;;;;;;20.02;60.48;101219.28;5031894;28;20653;-65
2022/07/11 01:25:35;;;;;;;7.87;2.57;;;;;;;20.06;60.02;101224.06;5028649;28;20208;-65
2022/07/11 01:28:06;;;;;;;6.57;2.17;;;;;;;20.07;60.22;101219.50;5034882;28;20300;-65
2022/07/11 01:30:34;;;;;;;5.47;2.67;;;;;;;20.06;60.35;101220.53;5033128;28;20650;-65
2022/07/11 01:33:02;;;;;;;5.20;2.33;;;;;;;20.06;60.36;101224.06;5031420;28;20253;-65
2022/07/11 01:35:30;;;;;;;4.63;2.33;;;;;;;20.01;60.39;101214.91;5032106;28;20216;-65
2022/07/11 01:37:58;;;;;;;7.13;2.50;;;;;;;20.02;60.18;101216.56;5032421;28;20300;-65
2022/07/11 01:40:31;;;;;;;6.93;2.17;;;;;;;20.02;60.64;101208.50;5033031;28;20209;-65
2022/07/11 01:42:59;;;;;;;4.40;2.10;;;;;;;20.05;60.36;101211.66;5032317;28;20315;-65
2022/07/11 01:45:27;;;;;;;6.67;2.27;;;;;;;20.08;59.82;101215.81;5032328;28;20555;-65
2022/07/11 01:47:55;;;;;;;5.47;2.33;;;;;;;20.11;60.17;101216.25;5032939;28;20296;-65
2022/07/11 01:50:23;;;;;;;6.53;2.73;;;;;;;20.09;60.11;101217.47;5033021;28;20652;-65
2022/07/11 01:52:50;;;;;;;5.37;2.70;;;;;;;20.04;60.22;101217.22;5032329;28;20209;-65
2022/07/11 01:55:18;;;;;;;4.63;2.40;;;;;;;19.98;61.03;101215.28;5033335;28;20200;-65
2022/07/11 01:57:48;;;;;;;5.87;2.80;;;;;;;20.00;60.84;101213.25;5027981;28;20245;-65
2022/07/11 02:00:15;;;;;;;5.20;2.30;;;;;;;19.97;60.58;101219.00;5032458;28;20225;-66
2022/07/11 02:02:43;;;;;;;9.70;3.23;;;;;;;19.90;60.75;101214.38;5031857;28;20209;-65
2022/07/11 02:05:11;;;;;;;3.33;2.27;;;;;;;19.94;60.91;101222.09;5032790;28;20742;-65
2022/07/11 02:10:28;;;;;;;5.07;2.57;;;;;;;19.82;61.80;101211.81;5018949;28;20561;-65
2022/07/11 02:12:58;;;;;;;6.23;2.47;;;;;;;19.83;61.59;101208.09;5031644;28;20275;-65
2022/07/11 02:15:26;;;;;;;4.40;2.40;;;;;;;19.84;61.37;101209.78;5032300;28;20776;-65
2022/07/11 02:17:54;;;;;;;6.97;2.83;;;;;;;19.90;61.33;101217.06;5032445;28;20863;-66
2022/07/11 02:20:22;;;;;;;5.77;2.27;;;;;;;19.91;61.36;101212.53;5030382;28;20307;-66
2022/07/11 02:22:51;;;;;;;8.53;2.90;;;;;;;19.85;61.55;101206.06;5030505;28;20704;-65
2022/07/11 02:25:19;;;;;;;6.70;2.70;;;;;;;19.84;61.24;101209.78;5031813;28;20288;-66
2022/07/11 02:27:47;;;;;;;6.87;2.40;;;;;;;19.82;61.42;101205.59;5031629;28;20209;-65
2022/07/11 02:30:16;;;;;;;4.20;2.50;;;;;;;19.81;61.92;101212.84;5030918;28;20211;-66
2022/07/11 02:32:44;;;;;;;5.53;2.50;;;;;;;19.82;62.01;101206.44;5030539;28;20316;-65
2022/07/11 02:35:11;;;;;;;5.20;2.87;;;;;;;19.83;61.50;101202.72;5031478;28;20216;-65
2022/07/11 02:37:39;;;;;;;7.47;2.50;;;;;;;19.91;60.83;101204.44;5040602;28;20692;-65
2022/07/11 02:40:08;;;;;;;7.53;2.67;;;;;;;19.92;61.07;101206.13;5031559;28;20323;-65
2022/07/11 02:42:35;;;;;;;4.47;2.83;;;;;;;19.89;61.10;101204.63;5030653;28;20208;-65
2022/07/11 02:45:04;;;;;;;6.50;2.70;;;;;;;19.80;61.37;101203.09;5031471;28;20209;-65
2022/07/11 02:47:33;;;;;;;7.50;2.43;;;;;;;19.77;61.17;101205.34;5031046;28;20239;-64
2022/07/11 02:50:00;;;;;;;4.03;2.57;;;;;;;19.80;61.31;101205.78;5031084;28;20213;-65
2022/07/11 02:52:28;;;;;;;6.47;2.20;;;;;;;19.81;61.82;101210.16;5030079;28;20746;-64
2022/07/11 02:54:56;;;;;;;4.63;2.47;;;;;;;19.84;61.10;101204.38;5031221;28;20213;-64
2022/07/11 02:57:24;;;;;;;6.10;2.23;;;;;;;19.85;61.27;101211.44;5030914;28;20335;-65
2022/07/11 02:59:51;;;;;;;5.23;2.83;;;;;;;19.88;61.28;101207.50;5030613;28;20247;-64
2022/07/11 03:02:19;;;;;;;4.93;2.70;;;;;;;19.89;61.65;101204.63;5030098;28;20216;-65
2022/07/11 03:04:48;;;;;;;5.87;2.50;;;;;;;19.81;61.59;101203.91;5030707;28;20204;-64
2022/07/11 03:07:17;;;;;;;8.73;2.90;;;;;;;19.72;62.36;101199.69;5030833;28;20217;-64
2022/07/11 03:09:44;;;;;;;6.10;2.40;;;;;;;19.62;62.77;101202.69;5030584;28;20651;-64
2022/07/11 03:12:12;;;;;;;4.90;2.57;;;;;;;19.57;62.95;101213.19;5029964;28;20208;-64
2022/07/11 03:14:40;;;;;;;6.70;3.60;;;;;;;19.59;62.96;101200.38;5026932;28;20740;-65
2022/07/11 03:17:08;;;;;;;8.33;2.70;;;;;;;19.58;63.14;101204.09;5024597;28;20201;-64
2022/07/11 03:19:36;;;;;;;6.53;2.77;;;;;;;19.66;63.30;101203.13;5030568;28;20286;-64
2022/07/11 03:22:06;;;;;;;10.83;2.83;;;;;;;19.72;62.74;101205.91;5017506;28;20205;-64
2022/07/11 03:24:33;;;;;;;9.30;3.17;;;;;;;19.78;62.54;101201.63;5030249;28;20204;-65
2022/07/11 03:27:01;;;;;;;7.03;2.90;;;;;;;19.79;62.60;101200.63;5030088;28;20227;-65
2022/07/11 03:29:29;;;;;;;5.03;3.33;;;;;;;19.81;62.28;101206.63;5030701;28;20292;-65
2022/07/11 03:31:57;;;;;;;4.60;2.73;;;;;;;19.77;62.62;101203.50;5030232;28;20228;-65
2022/07/11 03:34:25;;;;;;;5.07;3.03;;;;;;;19.83;62.29;101208.09;5031722;28;20215;-65
2022/07/11 03:36:53;;;;;;;7.80;2.97;;;;;;;19.86;61.86;101205.03;5026688;28;20223;-65
2022/07/11 03:39:22;;;;;;;6.90;2.97;;;;;;;19.88;61.47;101210.19;5030262;28;20599;-65
2022/07/11 03:41:50;;;;;;;10.67;3.00;;;;;;;19.88;61.52;101213.72;5030382;28;20805;-65
2022/07/11 03:44:18;;;;;;;4.83;2.90;;;;;;;19.89;61.71;101207.34;5029880;28;20211;-66
2022/07/11 03:46:46;;;;;;;6.90;2.60;;;;;;;19.88;61.57;101216.44;5029825;28;20304;-65
2022/07/11 03:49:13;;;;;;;7.40;2.60;;;;;;;19.93;61.04;101205.09;5030318;28;20205;-64
2022/07/11 03:51:41;;;;;;;5.33;2.40;;;;;;;19.89;61.76;101212.72;5030582;28;20212;-65
2022/07/11 03:54:09;;;;;;;6.40;2.83;;;;;;;19.91;61.18;101213.34;5029396;28;20209;-65
2022/07/11 03:56:38;;;;;;;4.77;2.73;;;;;;;19.95;61.22;101207.59;5029900;28;20244;-64
2022/07/11 03:59:06;;;;;;;4.63;3.00;;;;;;;19.98;61.47;101207.19;5030294;28;20591;-66
2022/07/11 04:01:33;;;;;;;6.33;2.90;;;;;;;19.96;61.36;101206.59;5030274;28;20230;-64
2022/07/11 04:04:01;;;;;;;7.57;2.97;;;;;;;19.91;61.59;101199.91;5029852;28;20209;-64
2022/07/11 04:06:29;;;;;;;8.07;3.03;;;;;;;19.94;61.87;101196.00;5027653;28;20685;-64
2022/07/11 04:08:57;;;;;;;6.53;2.97;;;;;;;19.94;61.97;101190.63;5031304;28;20211;-65
2022/07/11 04:11:24;;;;;;;5.30;3.20;;;;;;;19.95;61.67;101188.75;5030349;28;20209;-66
2022/07/11 04:13:53;;;;;;;5.93;2.93;;;;;;;19.93;61.89;101197.03;5032664;28;20242;-65
2022/07/11 04:16:21;;;;;;;6.37;2.60;;;;;;;19.90;61.90;101200.94;5034077;28;20215;-65
2022/07/11 04:18:49;;;;;;;7.70;2.77;;;;;;;19.93;62.23;101194.34;5033595;28;20209;-65
2022/07/11 04:21:17;;;;;;;4.47;2.63;;;;;;;19.92;61.71;101190.81;5033584;28;20307;-65
2022/07/11 04:23:44;;;;;;;6.23;3.30;;;;;;;19.92;62.14;101196.19;5032505;28;20307;-65
2022/07/11 04:26:12;;;;;;;5.67;2.70;;;;;;;19.94;62.23;101192.47;5033702;28;20209;-65
2022/07/11 04:28:40;;;;;;;7.13;2.97;;;;;;;19.92;62.39;101189.97;5033745;28;20684;-66
2022/07/11 04:31:10;;;;;;;9.73;3.00;;;;;;;19.95;62.28;101188.75;5033558;28;20208;-66
2022/07/11 04:33:38;;;;;;;8.07;3.10;;;;;;;19.96;62.27;101190.44;5032851;28;20236;-65
2022/07/11 04:36:07;;;;;;;5.80;3.13;;;;;;;19.97;62.22;101187.53;5033875;28;20221;-65
2022/07/11 04:38:34;;;;;;;11.03;3.07;;;;;;;19.98;62.46;101194.56;5025495;28;20216;-65
2022/07/11 04:41:02;;;;;;;7.47;3.57;;;;;;;19.99;62.28;101182.78;5033423;28;20225;-65
2022/07/11 04:43:30;;;;;;;7.93;3.20;;;;;;;20.00;62.67;101189.00;5024189;28;20209;-65
2022/07/11 04:45:58;;;;;;;10.17;2.90;;;;;;;20.01;62.42;101190.69;5023429;28;20281;-69
2022/07/11 04:48:28;;;;;;;7.37;3.13;;;;;;;20.06;62.21;101188.22;5033246;28;20219;-65
2022/07/11 04:50:56;;;;;;;5.00;2.80;;;;;;;20.08;62.30;101199.66;5032609;28;20205;-65
2022/07/11 04:53:24;;;;;;;6.50;3.07;;;;;;;20.11;62.77;101194.72;5044393;28;20243;-66
2022/07/11 04:55:51;;;;;;;9.70;3.27;;;;;;;20.12;62.46;101195.56;5033645;28;20219;-65
2022/07/11 04:58:19;;;;;;;7.17;2.63;;;;;;;20.13;62.51;101202.63;5032768;28;20323;-65
2022/07/11 05:00:47;;;;;;;7.53;2.73;;;;;;;20.11;62.53;101199.28;5032610;28;20320;-65
2022/07/11 05:03:15;;;;;;;6.47;3.40;;;;;;;20.11;62.18;101197.41;5031822;28;20209;-65
2022/07/11 05:05:44;;;;;;;6.37;3.23;;;;;;;20.13;62.31;101208.00;5032764;28;20404;-65
2022/07/11 05:08:11;;;;;;;5.67;3.17;;;;;;;20.17;62.67;101203.88;5032508;28;20210;-65
2022/07/11 05:10:39;;;;;;;7.90;2.63;;;;;;;20.21;62.09;101210.56;5032673;28;20661;-65
2022/07/11 05:13:07;;;;;;;6.23;2.77;;;;;;;20.23;61.96;101211.16;5028753;28;20835;-65
2022/07/11 05:15:35;;;;;;;6.53;2.73;;;;;;;20.22;62.26;101209.53;5024771;28;20635;-65
2022/07/11 05:18:02;;;;;;;8.17;3.03;;;;;;;20.24;61.93;101204.75;5029094;28;20206;-65
2022/07/11 05:20:30;;;;;;;5.87;2.73;;;;;;;20.27;61.64;101207.09;5025792;28;20244;-64
2022/07/11 05:23:00;;;;;;;6.50;3.03;;;;;;;20.33;61.68;101205.47;5027489;28;20213;-66
2022/07/11 05:25:28;;;;;;;5.27;2.83;;;;;;;20.34;61.20;101205.31;5025571;28;20279;-66
2022/07/11 05:27:56;;;;;;;7.33;2.77;;;;;;;20.36;61.43;101203.25;5032118;28;20292;-65
2022/07/11 05:30:23;;;;;;;8.57;3.17;;;;;;;20.39;61.57;101212.81;5032321;28;20213;-65
2022/07/11 05:32:51;;;;;;;8.57;2.67;;;;;;;20.41;60.84;101211.56;5031219;28;20239;-65
2022/07/11 05:35:19;;;;;;;10.77;3.63;;;;;;;20.46;61.07;101213.69;5031775;28;20209;-65
2022/07/11 05:37:46;;;;;;;6.93;4.00;;;;;;;20.51;60.78;101214.78;5032436;28;20307;-65
2022/07/11 05:40:16;;;;;;;4.67;2.80;;;;;;;20.56;60.96;101215.03;5031706;28;20200;-66
2022/07/11 05:42:43;;;;;;;6.53;2.80;;;;;;;20.58;60.53;101222.94;5031512;28;20718;-65
2022/07/11 05:45:11;;;;;;;6.77;2.60;;;;;;;20.63;59.98;101215.91;5032156;28;20759;-66
2022/07/11 05:47:39;;;;;;;5.83;2.67;;;;;;;20.65;60.13;101224.66;5031864;28;20607;-65
2022/07/11 05:50:07;;;;;;;6.80;2.90;;;;;;;20.69;59.15;101227.75;5032276;28;20208;-66
2022/07/11 05:52:35;;;;;;;8.00;3.10;;;;;;;20.72;59.27;101229.25;5025520;28;20296;-67
2022/07/11 05:55:03;;;;;;;6.97;2.43;;;;;;;20.75;59.22;101228.88;5024129;28;20299;-65
2022/07/11 05:57:33;;;;;;;6.90;3.97;;;;;;;20.79;58.87;101230.13;5031205;28;20250;-65
2022/07/11 06:00:00;;;;;;;5.17;3.03;;;;;;;20.82;58.29;101235.97;5032038;28;20209;-66
2022/07/11 06:02:28;;;;;;;5.97;2.97;;;;;;;20.82;58.29;101237.81;5027128;28;20392;-66
2022/07/11 06:04:56;;;;;;;5.13;2.47;;;;;;;20.86;58.40;101231.81;5029459;28;20262;-66
2022/07/11 06:10:09;;;;;;;8.27;2.60;;;;;;;20.92;59.59;101224.84;5018015;28;20318;-65
2022/07/11 06:12:38;;;;;;;8.57;2.93;;;;;;;20.95;58.97;101221.72;5030777;28;20205;-66
2022/07/11 06:15:07;;;;;;;6.30;2.73;;;;;;;20.97;58.70;101225.06;5031122;28;20847;-66
2022/07/11 06:17:34;;;;;;;7.03;2.87;;;;;;;21.01;58.32;101224.47;5031643;28;20215;-66
2022/07/11 06:20:02;;;;;;;11.17;2.87;;;;;;;21.07;58.37;101216.63;5031278;28;20263;-66
2022/07/11 06:22:30;;;;;;;5.97;2.40;;;;;;;21.10;58.35;101217.06;5030277;28;20232;-65
2022/07/11 06:24:57;;;;;;;4.87;2.17;;;;;;;21.13;58.14;101222.03;5030575;28;20234;-64
2022/07/11 06:27:25;;;;;;;8.27;2.27;;;;;;;21.16;57.93;101210.88;5030518;28;20296;-65
2022/07/11 06:29:54;;;;;;;8.43;2.53;;;;;;;21.21;58.11;101219.22;5031220;28;20204;-65
2022/07/11 06:32:23;;;;;;;4.50;2.07;;;;;;;21.21;57.62;101221.06;5026067;28;20221;-65
2022/07/11 06:34:51;;;;;;;6.20;2.63;;;;;;;21.23;57.90;101211.75;5028154;28;20220;-66
2022/07/11 06:37:19;;;;;;;4.00;1.90;;;;;;;21.27;57.61;101215.72;5024394;28;20212;-65
2022/07/11 06:39:47;;;;;;;5.03;2.20;;;;;;;21.36;57.12;101211.84;5030743;28;20236;-65
2022/07/11 06:42:14;;;;;;;5.07;2.20;;;;;;;21.46;57.10;101216.84;5031440;28;20221;-65
2022/07/11 06:44:42;;;;;;;7.67;2.23;;;;;;;21.53;56.67;101212.31;5039299;28;20211;-66
2022/07/11 06:47:11;;;;;;;5.23;2.33;;;;;;;21.57;56.78;101218.13;5030532;28;20205;-66
2022/07/11 06:49:39;;;;;;;6.93;2.70;;;;;;;21.58;56.15;101226.03;5030761;28;20589;-66
2022/07/11 06:52:07;;;;;;;3.73;1.80;;;;;;;21.64;56.40;101216.28;5030773;28;20658;-66
2022/07/11 06:54:35;;;;;;;8.87;2.30;;;;;;;21.74;55.72;101212.16;5030439;28;20295;-66
2022/07/11 06:57:02;;;;;;;5.90;2.07;;;;;;;21.82;55.84;101211.16;5030332;28;20327;-66
2022/07/11 06:59:38;;;;;;;5.40;1.80;;;;;;;21.78;56.07;101212.59;5030831;28;20204;-66
2022/07/11 07:02:06;;;;;;;4.50;2.10;;;;;;;21.78;55.78;101209.91;5029076;28;20232;-64
2022/07/11 07:04:35;;;;;;;3.70;1.53;;;;;;;21.67;56.17;101214.03;5034749;28;20299;-65
2022/07/11 07:07:04;;;;;;;5.67;2.33;;;;;;;21.65;56.13;101207.97;5030317;28;20704;-65
2022/07/11 07:09:31;;;;;;;5.87;1.93;;;;;;;21.63;56.12;101209.25;5030838;28;20274;-66
2022/07/11 07:11:59;;;;;;;6.47;2.20;;;;;;;21.66;56.43;101212.34;5031022;28;20659;-65
2022/07/11 07:14:27;;;;;;;6.17;2.27;;;;;;;21.73;56.66;101206.97;5044996;28;20693;-66
2022/07/11 07:16:55;;;;;;;5.37;2.30;;;;;;;21.81;56.50;101214.91;5030071;28;20213;-65
2022/07/11 07:19:23;;;;;;;7.90;2.87;;;;;;;21.82;55.67;101215.72;5030277;28;20211;-65
2022/07/11 07:21:52;;;;;;;6.00;2.30;;;;;;;21.81;55.81;101219.47;5029730;28;20230;-66
2022/07/11 07:24:19;;;;;;;4.10;2.10;;;;;;;21.75;55.85;101221.09;5029484;28;20243;-65
2022/07/11 07:26:47;;;;;;;3.43;1.73;;;;;;;21.70;56.34;101218.19;5031196;28;20204;-63
2022/07/11 07:29:15;;;;;;;4.90;1.93;;;;;;;21.67;56.39;101221.28;5026646;28;20200;-65
2022/07/11 07:31:42;;;;;;;8.30;2.60;;;;;;;21.70;56.37;101223.59;5029508;28;20229;-65
2022/07/11 07:34:10;;;;;;;6.70;2.37;;;;;;;21.73;56.26;101223.16;5030120;28;20684;-65
2022/07/11 07:36:38;;;;;;;4.60;1.87;;;;;;;21.90;55.96;101212.84;5029926;28;20205;-65
2022/07/11 07:39:07;;;;;;;4.27;1.70;;;;;;;21.98;56.19;101221.63;5029651;28;20319;-65
2022/07/11 07:41:35;;;;;;;3.13;1.87;;;;;;;21.99;56.58;101212.47;5022318;28;20335;-65
2022/07/11 07:44:03;;;;;;;5.13;2.20;;;;;;;22.04;55.46;101214.56;5032647;28;20636;-65
2022/07/11 07:46:31;;;;;;;5.50;1.90;;;;;;;22.05;55.40;101216.22;5034104;28;20657;-65
2022/07/11 07:48:59;;;;;;;6.17;2.27;;;;;;;22.07;55.76;101216.84;5034204;28;20822;-65
2022/07/11 07:51:27;;;;;;;8.73;3.60;;;;;;;22.06;55.90;101221.44;5034158;28;20207;-66
2022/07/11 07:53:55;;;;;;;6.13;2.57;;;;;;;22.07;55.43;101222.25;5033757;28;20544;-65
2022/07/11 07:56:26;;;;;;;5.17;2.60;;;;;;;22.08;55.62;101222.03;5033395;28;20219;-65
2022/07/11 07:58:53;;;;;;;5.50;2.30;;;;;;;22.08;55.72;101216.63;5033160;28;20218;-65
2022/07/11 08:01:36;;;;;;;6.87;2.40;;;;;;;22.10;55.26;101214.56;5033593;28;20211;-66
2022/07/11 08:04:05;;;;;;;9.30;2.20;;;;;;;22.11;55.86;101216.22;5028324;28;20204;-65
2022/07/11 08:06:34;;;;;;;7.23;2.27;;;;;;;22.11;55.97;101210.81;5028694;28;20643;-65
2022/07/11 08:09:02;;;;;;;6.43;2.30;;;;;;;22.13;55.41;101214.16;5033486;28;20533;-65
2022/07/11 08:11:31;;;;;;;5.53;2.07;;;;;;;22.20;55.67;101214.16;5027250;28;20224;-65
2022/07/11 08:14:00;;;;;;;4.13;1.50;;;;;;;22.29;54.86;101217.50;5033074;28;20715;-65
2022/07/11 08:16:29;;;;;;;5.07;1.60;;;;;;;22.39;54.86;101217.91;5033558;28;20208;-65
2022/07/11 08:18:59;;;;;;;5.03;1.80;;;;;;;22.51;54.58;101210.88;5033165;28;20207;-65
2022/07/11 08:21:28;;;;;;;4.17;1.87;;;;;;;22.56;54.64;101219.16;5033252;28;20240;-65
2022/07/11 08:23:56;;;;;;;11.63;2.50;;;;;;;22.53;54.46;101220.41;5036491;28;20258;-65
2022/07/11 08:26:24;;;;;;;7.53;2.10;;;;;;;22.61;54.32;101215.81;5033077;28;20291;-66
2022/07/11 08:29:00;;;;;;;5.53;1.70;;;;;;;22.68;53.38;101212.09;5036988;28;20215;-65
2022/07/11 08:31:28;;;;;;;6.17;1.83;;;;;;;22.75;53.16;101220.22;5033194;28;20229;-65
2022/07/11 08:33:58;;;;;;;3.63;1.70;;;;;;;22.80;53.59;101225.81;5032567;28;20213;-65
2022/07/11 08:36:27;;;;;;;4.40;1.50;;;;;;;22.83;52.93;101225.41;5032987;28;20292;-65
2022/07/11 08:38:55;;;;;;;4.68;1.85;;;;;;;22.84;52.65;101221.69;5033068;28;20212;-65
2022/07/11 08:41:23;;;;;;;3.25;1.63;;;;;;;22.84;53.27;101227.91;5033040;28;20228;-66
2022/07/11 08:43:52;;;;;;;5.27;1.97;;;;;;;22.88;53.18;101215.63;5032385;28;20246;-65
2022/07/11 08:46:21;;;;;;;8.57;3.78;;;;;;;22.92;53.35;101224.16;5032908;28;20410;-66
2022/07/11 08:48:51;;;;;;;4.57;2.67;;;;;;;22.99;53.00;101224.13;5033212;28;20209;-65
2022/07/11 08:51:20;;;;;;;4.25;2.00;;;;;;;23.07;52.42;101223.91;5033151;28;20201;-65
2022/07/11 08:53:48;;;;;;;2.90;1.73;;;;;;;23.20;51.79;101218.47;5031393;28;20209;-64
2022/07/11 08:56:17;;;;;;;5.00;1.30;;;;;;;23.33;52.02;101215.72;5032534;28;20204;-65
2022/07/11 08:58:46;;;;;;;4.28;1.50;;;;;;;23.44;52.09;101216.91;5032693;28;20822;-65
2022/07/11 09:01:28;;;;;;;4.53;1.38;;;;;;;23.55;51.45;101213.59;5032351;28;20632;-66
2022/07/11 09:03:56;;;;;;;4.82;2.17;;;;;;;23.60;51.52;101216.47;5031488;28;20232;-65
2022/07/11 09:06:24;;;;;;;4.45;2.42;;;;;;;23.59;51.30;101218.34;5032511;28;20205;-66
2022/07/11 09:08:52;;;;;;;5.82;2.45;;;;;;;23.63;51.31;101219.59;5026877;28;20208;-66
2022/07/11 09:11:20;;;;;;;5.50;2.50;;;;;;;23.64;50.73;101223.13;5031514;28;20211;-65
2022/07/11 09:13:48;;;;;;;7.65;2.80;;;;;;;23.56;51.05;101216.06;5031906;28;20227;-66
2022/07/11 09:16:18;;;;;;;7.00;2.50;;;;;;;23.61;50.63;101218.97;5032417;28;20243;-66
2022/07/11 09:18:48;;;;;;;8.00;3.13;;;;;;;23.60;50.83;101211.03;5032261;28;20274;-66
2022/07/11 09:26:52;;;;;;;7.10;3.15;;;;;;;23.51;51.36;101215.88;5031877;28;20243;-65
2022/07/11 09:29:21;;;;;;;6.05;2.67;;;;;;;23.58;51.16;101218.53;5031706;28;20209;-65
2022/07/11 09:31:50;;;;;;;6.05;3.00;;;;;;;23.76;51.01;101221.38;5032098;28;20712;-66
2022/07/11 09:34:20;;;;;;;6.22;3.33;;;;;;;23.78;50.81;101213.03;5032013;28;20224;-66
2022/07/11 09:36:50;;;;;;;3.63;2.47;;;;;;;23.78;50.48;101218.44;5031841;28;20594;-65
2022/07/11 09:39:19;;;;;;;5.90;2.50;;;;;;;23.79;50.23;101225.53;5032344;28;20212;-66
2022/07/11 09:41:48;;;;;;;4.90;3.30;;;;;;;23.71;49.99;101223.09;5032650;28;20291;-66
2022/07/11 09:44:17;;;;;;;5.88;2.80;;;;;;;23.66;50.39;101228.31;5018855;28;20235;-66
2022/07/11 09:46:47;;;;;;;5.05;2.88;;;;;;;23.52;50.56;101219.41;5031735;28;20231;-66
2022/07/11 09:49:16;;;;;;;7.18;3.38;;;;;;;23.65;50.45;101221.25;5035273;28;20228;-65
2022/07/11 09:51:45;;;;;;;4.85;3.03;;;;;;;23.61;50.79;101221.66;5030813;28;20213;-66
2022/07/11 09:54:13;;;;;;;6.93;3.30;;;;;;;23.64;50.45;101223.13;5030844;28;20287;-66
2022/07/11 09:56:43;;;;;;;6.97;3.08;;;;;;;23.57;50.71;101220.41;5031448;28;20725;-66
2022/07/11 09:59:25;;;;;;;5.05;3.17;;;;;;;23.59;50.66;101215.63;5031825;28;20200;-65
2022/07/11 10:01:53;;;;;;;5.68;3.58;;;;;;;23.73;50.31;101215.56;5031645;28;20308;-66
2022/07/11 10:04:22;;;;;;;5.80;4.07;;;;;;;23.81;50.30;101212.63;5027729;28;20565;-65
2022/07/11 10:06:52;;;;;;;10.90;4.85;;;;;;;23.72;51.14;101216.63;5030945;28;20267;-66
2022/07/11 10:09:19;;;;;;;8.68;4.85;;;;;;;23.70;51.41;101205.16;5031716;28;20234;-66
2022/07/11 10:11:47;;;;;;;6.93;4.57;;;;;;;23.78;51.39;101210.31;5017161;28;20208;-65
2022/07/11 10:14:15;;;;;;;8.32;4.53;;;;;;;23.72;51.25;101203.09;5035991;28;20205;-65
2022/07/11 10:16:53;;;;;;;8.80;5.25;;;;;;;23.78;50.76;101199.50;5031302;28;20205;-66
2022/07/11 10:19:35;;;;;;;8.98;4.97;;;;;;;23.88;51.46;101205.28;5031233;28;20209;-65
2022/07/11 10:22:18;;;;;;;7.57;4.93;;;;;;;24.12;51.43;101206.34;5030044;28;20201;-66
2022/07/11 10:24:54;;;;;;;7.85;5.15;;;;;;;24.36;50.60;101195.56;5031578;28;20228;-67
2022/07/11 10:27:29;;;;;;;6.25;3.97;;;;;;;24.46;49.74;101203.19;5031441;28;20287;-67
2022/07/11 10:30:01;;;;;;;8.25;5.25;;;;;;;24.40;49.78;101205.97;5030823;28;20224;-66
2022/07/11 10:32:28;;;;;;;9.20;5.93;;;;;;;24.33;49.97;101208.75;5030738;28;20324;-65
2022/07/11 10:35:10;;;;;;;8.02;5.70;;;;;;;24.28;49.61;101209.38;5031371;28;20242;-66
2022/07/11 10:37:53;;;;;;;11.98;5.38;;;;;;;24.33;49.27;101206.88;5031321;28;20729;-65
2022/07/11 10:40:47;;;;;;;7.63;5.32;;;;;;;24.55;48.65;101206.47;5031080;28;20219;-66
2022/07/11 10:43:17;;;;;;;8.00;5.20;;;;;;;24.64;48.46;101202.41;5030351;28;20702;-66
2022/07/11 10:45:56;;;;;;;9.63;5.13;;;;;;;24.72;48.41;101200.25;5030181;28;20216;-65
2022/07/11 10:48:24;;;;;;;7.35;5.40;;;;;;;24.57;48.75;101207.91;5031050;28;20296;-65
2022/07/11 10:51:04;;;;;;;9.43;5.85;;;;;;;24.51;48.51;101205.25;5030408;28;20217;-65
2022/07/11 10:53:44;;;;;;;9.50;5.57;;;;;;;24.45;49.29;101206.16;5013691;28;20299;-65
2022/07/11 10:56:25;;;;;;;6.90;4.38;;;;;;;24.45;47.06;101203.44;5028413;28;20270;-65
2022/07/11 10:59:15;;;;;;;6.15;4.32;;;;;;;24.43;47.00;101205.53;5016459;28;20204;-65
2022/07/11 11:02:10;;;;;;;7.85;4.65;;;;;;;24.57;47.02;101197.06;5014296;28;20233;-65
2022/07/11 11:04:43;;;;;;;6.18;4.30;;;;;;;24.83;47.74;101195.97;5010751;28;20221;-66
2022/07/11 11:07:29;;;;;;;7.90;5.20;;;;;;;25.04;47.58;101201.00;5011257;28;20651;-66
2022/07/11 11:10:00;;;;;;;8.27;4.65;;;;;;;25.16;46.38;101209.19;5010901;28;20201;-66
2022/07/11 11:13:06;;;;;;;7.88;4.82;;;;;;;25.22;46.09;101194.75;5010231;28;20589;-66
2022/07/11 11:15:41;;;;;;;6.68;4.80;;;;;;;25.17;46.11;101197.31;5000093;28;20297;-66
2022/07/11 11:18:34;;;;;;;7.47;4.50;;;;;;;25.04;45.95;101197.47;5017972;28;20725;-65
2022/07/11 11:21:21;;;;;;;5.97;4.35;;;;;;;24.99;46.13;101189.97;5011611;28;20240;-65
2022/07/11 11:24:07;;;;;;;7.53;3.83;;;;;;;25.15;46.13;101193.19;5006985;28;20635;-65
2022/07/11 11:26:49;;;;;;;6.32;4.20;;;;;;;25.21;45.91;101189.53;5006291;28;20233;-65
2022/07/11 11:29:25;;;;;;;5.60;3.83;;;;;;;25.15;45.83;101183.16;5016275;28;20196;-65
2022/07/11 11:31:57;;;;;;;7.40;3.83;;;;;;;25.05;45.64;101191.00;5013379;28;20624;-65
2022/07/11 11:34:25;;;;;;;6.88;3.60;;;;;;;24.97;46.06;101186.69;5010357;28;20212;-66
2022/07/11 11:37:02;;;;;;;7.13;3.85;;;;;;;24.96;46.32;101186.91;5010357;28;20368;-66
2022/07/11 11:39:33;;;;;;;8.35;4.70;;;;;;;24.82;46.58;101188.06;5004231;28;20264;-66
2022/07/11 11:42:08;;;;;;;6.15;3.58;;;;;;;24.74;46.42;101190.00;5007317;28;20214;-66
2022/07/11 11:44:47;;;;;;;6.80;3.42;;;;;;;24.68;46.10;101192.78;5016148;28;20652;-65
2022/07/11 11:47:15;;;;;;;4.80;3.45;;;;;;;24.54;46.73;101194.78;5012416;28;20227;-65